Time;durP1;ratioP1;P1;durP2;ratioP2;P2;SDS_P1;SDS_P2;PMS_P1;PMS_P2;Temp;Humidity;BMP_temperature;BMP_pressure;BME280_temperature;BME280_humidity;BME280_pressure;Samples;Min_cycle;Max_cycle;Signal;HPM_P1;HPM_P2
2021/12/01 00:01:30;;;;;;;5.97;0.90;;;4.00;99.90;;;;;;5094143;28;20703;-85
2021/12/01 00:03:56;;;;;;;7.60;1.40;;;4.10;99.90;;;;;;5092778;28;20176;-88
2021/12/01 00:06:21;;;;;;;4.30;1.30;;;4.10;99.90;;;;;;5094039;28;20423;-81
2021/12/01 00:08:47;;;;;;;8.97;2.00;;;4.20;99.90;;;;;;5094039;28;20175;-81
2021/12/01 00:11:12;;;;;;;10.40;2.07;;;4.20;99.90;;;;;;5093989;28;20259;-81
2021/12/01 00:13:38;;;;;;;8.07;2.47;;;4.10;99.90;;;;;;5093855;28;20168;-82
2021/12/01 00:16:04;;;;;;;12.33;2.53;;;4.20;99.90;;;;;;5094483;28;20302;-84
2021/12/01 00:18:30;;;;;;;9.83;2.40;;;4.20;99.90;;;;;;5094376;28;20160;-89
2021/12/01 00:20:57;;;;;;;7.27;2.40;;;4.20;99.90;;;;;;5093903;28;20278;-82
2021/12/01 00:23:23;;;;;;;7.83;1.73;;;4.20;99.90;;;;;;5092547;28;20774;-82
2021/12/01 00:25:49;;;;;;;6.20;1.40;;;4.20;99.90;;;;;;5093694;28;20406;-82
2021/12/01 00:28:15;;;;;;;6.10;0.80;;;4.20;99.90;;;;;;5093634;28;20429;-82
2021/12/01 00:30:40;;;;;;;9.93;2.13;;;4.20;99.90;;;;;;5093732;28;20513;-83
2021/12/01 00:33:09;;;;;;;9.83;1.30;;;4.10;99.90;;;;;;5093409;28;20531;-81
2021/12/01 00:35:35;;;;;;;6.97;1.83;;;4.10;99.90;;;;;;5093064;28;20354;-81
2021/12/01 00:38:00;;;;;;;6.90;1.60;;;4.10;99.90;;;;;;5093207;28;20515;-83
2021/12/01 00:40:26;;;;;;;5.47;1.60;;;4.10;99.90;;;;;;5092039;28;20215;-82
2021/12/01 00:42:53;;;;;;;6.20;1.30;;;4.10;99.90;;;;;;5093265;28;20238;-81
2021/12/01 00:45:21;;;;;;;8.40;1.50;;;4.10;99.90;;;;;;5093248;28;20860;-82
2021/12/01 00:47:52;;;;;;;3.60;1.03;;;4.20;99.90;;;;;;5092042;28;20548;-81
2021/12/01 00:50:32;;;;;;;7.23;1.17;;;4.20;99.90;;;;;;5092899;28;20411;-82
2021/12/01 00:53:01;;;;;;;6.70;1.70;;;4.10;99.90;;;;;;5092294;28;20430;-83
2021/12/01 00:55:27;;;;;;;5.00;1.27;;;4.10;99.90;;;;;;5093202;28;20485;-81
2021/12/01 00:57:53;;;;;;;6.53;1.70;;;4.10;99.90;;;;;;5093331;28;20407;-82
2021/12/01 01:00:21;;;;;;;11.90;2.30;;;4.10;99.90;;;;;;5093099;28;20406;-82
2021/12/01 01:02:47;;;;;;;9.47;1.70;;;4.10;99.90;;;;;;5085905;28;20473;-81
2021/12/01 01:05:13;;;;;;;5.20;1.17;;;4.10;99.90;;;;;;5082874;28;20414;-81
2021/12/01 01:07:39;;;;;;;7.60;1.13;;;4.10;99.90;;;;;;5092913;28;20806;-81
2021/12/01 01:10:25;;;;;;;17.97;2.30;;;4.10;99.90;;;;;;5093311;28;20402;-81
2021/12/01 01:18:28;;;;;;;6.23;1.40;;;4.10;99.90;;;;;;5092739;28;20402;-81
2021/12/01 01:20:54;;;;;;;4.50;1.57;;;4.10;99.90;;;;;;5092781;28;20453;-87
2021/12/01 01:23:20;;;;;;;7.87;2.00;;;4.00;99.90;;;;;;5092871;28;20414;-81
2021/12/01 01:25:45;;;;;;;10.87;1.53;;;4.00;99.90;;;;;;5095725;28;20169;-82
2021/12/01 01:28:11;;;;;;;6.00;1.30;;;4.00;99.90;;;;;;5097000;28;20172;-81
2021/12/01 01:30:37;;;;;;;8.83;2.20;;;4.00;99.90;;;;;;5076967;28;20181;-81
2021/12/01 01:33:02;;;;;;;7.10;0.90;;;4.10;99.90;;;;;;5076741;28;20165;-81
2021/12/01 01:35:28;;;;;;;6.40;1.60;;;4.00;99.90;;;;;;5076333;28;20173;-81
2021/12/01 01:37:53;;;;;;;6.63;1.20;;;4.10;99.90;;;;;;5076480;28;20623;-84
2021/12/01 01:40:20;;;;;;;5.10;2.53;;;4.10;99.90;;;;;;5076504;28;20196;-81
2021/12/01 01:42:46;;;;;;;6.33;1.70;;;4.10;99.90;;;;;;5076214;28;20187;-86
2021/12/01 01:45:12;;;;;;;6.13;2.03;;;4.10;99.90;;;;;;5076356;28;20476;-81
2021/12/01 01:47:59;;;;;;;7.10;1.90;;;4.20;99.90;;;;;;5076398;28;20498;-81
2021/12/01 01:50:35;;;;;;;7.30;2.03;;;4.30;99.90;;;;;;5075774;28;20439;-82
2021/12/01 01:53:11;;;;;;;9.50;2.13;;;4.30;99.90;;;;;;5076305;28;20421;-81
2021/12/01 01:55:43;;;;;;;6.40;1.83;;;4.30;99.90;;;;;;5074938;28;20438;-81
2021/12/01 01:58:10;;;;;;;8.60;2.27;;;4.40;99.90;;;;;;5075961;28;20426;-81
2021/12/01 02:00:44;;;;;;;7.90;2.43;;;4.50;99.90;;;;;;5075826;28;20451;-82
2021/12/01 02:03:12;;;;;;;4.87;2.20;;;4.40;99.90;;;;;;5075761;28;20487;-81
2021/12/01 02:05:38;;;;;;;8.30;3.37;;;4.50;99.90;;;;;;5076041;28;20426;-81
2021/12/01 02:08:04;;;;;;;10.27;2.33;;;4.50;99.90;;;;;;5076041;28;20415;-82
2021/12/01 02:10:30;;;;;;;10.97;3.57;;;4.50;99.90;;;;;;5075883;28;20447;-81
2021/12/01 02:12:56;;;;;;;10.30;3.17;;;4.50;99.90;;;;;;5075845;28;20430;-88
2021/12/01 02:15:22;;;;;;;5.53;2.57;;;4.60;99.90;;;;;;5075596;28;20411;-82
2021/12/01 02:17:48;;;;;;;11.73;2.27;;;4.60;99.90;;;;;;5075816;28;20403;-83
2021/12/01 02:20:19;;;;;;;10.57;2.90;;;4.60;99.90;;;;;;5075411;28;20465;-82
2021/12/01 02:22:45;;;;;;;10.47;3.27;;;4.60;99.90;;;;;;5075842;28;20177;-81
2021/12/01 02:25:10;;;;;;;10.20;2.93;;;4.60;99.90;;;;;;5075702;28;20414;-81
2021/12/01 02:27:36;;;;;;;6.77;3.07;;;4.70;99.90;;;;;;5075656;28;20550;-80
2021/12/01 02:30:02;;;;;;;6.40;2.80;;;4.70;99.90;;;;;;5075624;28;20219;-80
2021/12/01 02:32:28;;;;;;;6.27;3.10;;;4.70;99.90;;;;;;5075486;28;20246;-82
2021/12/01 02:34:53;;;;;;;3.70;1.50;;;4.70;99.90;;;;;;5075253;28;20837;-81
2021/12/01 02:37:21;;;;;;;6.83;3.20;;;4.70;99.90;;;;;;5072916;28;20212;-82
2021/12/01 02:39:50;;;;;;;9.50;2.37;;;4.70;99.90;;;;;;5074281;28;20260;-82
2021/12/01 02:42:19;;;;;;;11.63;5.13;;;4.70;99.90;;;;;;5075297;28;20824;-83
2021/12/01 02:44:45;;;;;;;9.27;2.77;;;4.70;99.90;;;;;;5075372;28;20418;-82
2021/12/01 02:47:11;;;;;;;10.70;3.17;;;4.70;99.90;;;;;;5075363;28;20430;-82
2021/12/01 02:49:37;;;;;;;6.80;2.43;;;4.80;99.90;;;;;;5074919;28;20645;-83
2021/12/01 02:52:03;;;;;;;7.20;3.07;;;4.80;99.90;;;;;;5075232;28;20453;-83
2021/12/01 02:54:29;;;;;;;10.70;3.23;;;4.80;99.90;;;;;;5075207;28;20191;-82
2021/12/01 02:56:55;;;;;;;4.80;2.37;;;4.80;99.90;;;;;;5075112;28;20907;-88
2021/12/01 02:59:22;;;;;;;6.73;3.00;;;4.80;99.90;;;;;;5075146;28;20478;-89
2021/12/01 03:01:48;;;;;;;3.00;2.03;;;4.90;99.90;;;;;;5075120;28;20475;-83
2021/12/01 03:04:15;;;;;;;7.20;3.40;;;4.80;99.90;;;;;;5074658;28;20407;-90
2021/12/01 03:06:43;;;;;;;5.77;2.30;;;4.90;99.90;;;;;;5074881;28;20531;-82
2021/12/01 03:09:10;;;;;;;5.23;2.70;;;4.90;99.90;;;;;;5074729;28;20404;-83
2021/12/01 03:11:37;;;;;;;7.93;2.57;;;4.90;99.90;;;;;;5073989;28;20758;-83
2021/12/01 03:14:08;;;;;;;4.33;2.50;;;4.90;99.90;;;;;;5074178;28;20399;-82
2021/12/01 03:16:34;;;;;;;4.33;2.43;;;4.90;99.90;;;;;;5074838;28;20965;-82
2021/12/01 03:19:00;;;;;;;6.03;1.57;;;4.90;99.90;;;;;;5074327;28;20408;-82
2021/12/01 03:21:26;;;;;;;5.43;2.10;;;4.90;99.90;;;;;;5074603;28;20523;-82
2021/12/01 03:23:51;;;;;;;4.30;1.60;;;4.90;99.90;;;;;;5074724;28;20595;-82
2021/12/01 03:26:17;;;;;;;4.77;2.10;;;5.00;99.90;;;;;;5074619;28;20173;-86
2021/12/01 03:28:43;;;;;;;3.23;1.20;;;5.00;99.90;;;;;;5074605;28;20586;-81
2021/12/01 03:31:08;;;;;;;4.83;1.30;;;5.00;99.90;;;;;;5085720;28;20243;-82
2021/12/01 03:33:34;;;;;;;4.70;2.53;;;5.00;99.90;;;;;;5094365;28;20173;-82
2021/12/01 03:36:00;;;;;;;4.17;1.50;;;5.00;99.90;;;;;;5094654;28;20271;-82
2021/12/01 03:38:27;;;;;;;8.10;2.17;;;5.00;99.90;;;;;;5093962;28;20277;-82
2021/12/01 03:40:57;;;;;;;2.83;1.87;;;5.00;99.90;;;;;;5094523;28;20539;-82
2021/12/01 03:43:25;;;;;;;3.63;2.67;;;5.00;99.90;;;;;;5094460;28;20419;-81
2021/12/01 03:45:51;;;;;;;4.87;2.00;;;5.00;99.90;;;;;;5094510;28;20768;-82
2021/12/01 03:48:16;;;;;;;2.93;1.30;;;5.00;99.90;;;;;;5096439;28;20414;-92
2021/12/01 03:50:48;;;;;;;6.97;1.87;;;5.00;99.90;;;;;;5076302;28;20441;-82
2021/12/01 03:53:14;;;;;;;3.17;1.27;;;5.00;99.90;;;;;;5094373;28;20172;-84
2021/12/01 03:55:40;;;;;;;3.20;1.20;;;5.10;99.90;;;;;;5094250;28;20407;-82
2021/12/01 03:58:06;;;;;;;3.30;1.20;;;5.10;99.90;;;;;;5094223;28;20920;-82
2021/12/01 04:00:31;;;;;;;2.03;0.97;;;5.10;99.90;;;;;;5094126;28;20205;-81
2021/12/01 04:02:57;;;;;;;5.47;1.67;;;5.20;99.90;;;;;;5094019;28;20647;-82
2021/12/01 04:05:23;;;;;;;4.83;1.10;;;5.20;99.90;;;;;;5094088;28;20605;-83
2021/12/01 04:07:48;;;;;;;1.10;0.30;;;5.20;99.90;;;;;;5092948;28;20456;-83
2021/12/01 04:10:16;;;;;;;3.20;1.27;;;5.20;99.90;;;;;;5094039;28;20193;-81
2021/12/01 04:12:43;;;;;;;6.47;0.77;;;5.20;99.90;;;;;;5093726;28;20686;-83
2021/12/01 04:15:10;;;;;;;2.20;0.97;;;5.20;99.90;;;;;;5093354;28;20431;-81
2021/12/01 04:17:36;;;;;;;2.67;1.30;;;5.20;99.90;;;;;;5093388;28;20422;-82
2021/12/01 04:20:02;;;;;;;2.40;0.93;;;5.20;99.90;;;;;;5091790;28;20414;-82
2021/12/01 04:22:27;;;;;;;3.50;1.33;;;5.20;99.90;;;;;;5093844;28;20508;-83
2021/12/01 04:24:53;;;;;;;4.30;1.30;;;5.20;99.90;;;;;;5093672;28;20439;-83
2021/12/01 04:27:19;;;;;;;3.70;1.23;;;5.20;99.90;;;;;;5093604;28;20259;-82
2021/12/01 04:29:44;;;;;;;1.57;0.80;;;5.30;99.90;;;;;;5093650;28;20548;-82
2021/12/01 04:32:10;;;;;;;2.30;1.40;;;5.30;99.90;;;;;;5092966;28;20183;-82
2021/12/01 04:34:36;;;;;;;3.80;1.57;;;5.30;99.90;;;;;;5093206;28;20176;-83
2021/12/01 04:37:02;;;;;;;2.00;1.03;;;5.30;99.90;;;;;;5093469;28;20196;-83
2021/12/01 04:39:28;;;;;;;1.27;0.97;;;5.30;99.90;;;;;;5093347;28;20564;-83
2021/12/01 04:41:56;;;;;;;2.57;1.57;;;5.40;99.90;;;;;;5093455;28;20908;-83
2021/12/01 04:44:24;;;;;;;4.53;2.40;;;5.40;99.90;;;;;;5093416;28;20249;-83
2021/12/01 04:46:54;;;;;;;2.60;1.33;;;5.40;99.90;;;;;;5092330;28;20935;-87
2021/12/01 04:49:21;;;;;;;1.70;0.93;;;5.40;99.90;;;;;;5092997;28;20813;-83
2021/12/01 04:51:54;;;;;;;1.70;0.60;;;5.40;99.90;;;;;;5093219;28;20415;-83
2021/12/01 04:54:20;;;;;;;1.57;0.63;;;5.40;99.90;;;;;;5093265;28;20420;-83
2021/12/01 04:56:46;;;;;;;4.80;1.00;;;5.50;99.90;;;;;;5084542;28;20434;-83
2021/12/01 04:59:13;;;;;;;0.90;0.53;;;5.50;99.90;;;;;;5071921;28;20211;-82
2021/12/01 05:01:40;;;;;;;2.60;0.93;;;5.50;99.90;;;;;;5072883;28;20473;-83
2021/12/01 05:04:06;;;;;;;0.70;0.40;;;5.50;99.90;;;;;;5072474;28;20422;-82
2021/12/01 05:06:32;;;;;;;3.30;1.20;;;5.50;99.90;;;;;;5072836;28;20417;-83
2021/12/01 05:08:57;;;;;;;2.10;0.70;;;5.50;99.90;;;;;;5072879;28;20504;-82
2021/12/01 05:11:24;;;;;;;1.30;0.73;;;5.50;99.90;;;;;;5072609;28;20173;-83
2021/12/01 05:13:50;;;;;;;1.50;1.10;;;5.60;99.90;;;;;;5071479;28;20231;-83
2021/12/01 05:16:16;;;;;;;1.83;1.00;;;5.60;99.90;;;;;;5072680;28;20458;-83
2021/12/01 05:18:42;;;;;;;2.00;1.00;;;5.50;99.90;;;;;;5072410;28;20529;-83
2021/12/01 05:21:07;;;;;;;1.50;0.63;;;5.60;99.90;;;;;;5072707;28;20212;-82
2021/12/01 05:23:33;;;;;;;1.43;0.50;;;5.60;99.90;;;;;;5072671;28;20282;-83
2021/12/01 05:25:59;;;;;;;2.20;0.60;;;5.60;99.90;;;;;;5072683;28;20255;-83
2021/12/01 05:28:25;;;;;;;1.90;0.73;;;5.70;99.90;;;;;;5072595;28;20414;-82
2021/12/01 05:30:50;;;;;;;1.30;0.80;;;5.70;99.90;;;;;;5072687;28;20197;-84
2021/12/01 05:33:16;;;;;;;1.30;0.80;;;5.70;99.90;;;;;;5072256;28;20173;-83
2021/12/01 05:35:43;;;;;;;1.37;0.77;;;5.70;99.90;;;;;;5072621;28;20183;-82
2021/12/01 05:38:10;;;;;;;1.40;0.67;;;5.80;99.90;;;;;;5072458;28;20308;-82
2021/12/01 05:40:36;;;;;;;1.07;0.77;;;5.80;99.90;;;;;;5071212;28;20470;-84
2021/12/01 05:43:02;;;;;;;1.40;0.73;;;5.80;99.90;;;;;;5072739;28;20421;-83
2021/12/01 05:45:27;;;;;;;1.00;0.87;;;5.90;99.90;;;;;;5072622;28;20407;-83
2021/12/01 05:47:53;;;;;;;0.70;0.57;;;5.90;99.90;;;;;;5072120;28;20415;-83
2021/12/01 05:50:19;;;;;;;1.07;0.40;;;5.90;99.90;;;;;;5072137;28;20613;-87
2021/12/01 05:52:45;;;;;;;1.40;0.60;;;6.00;99.90;;;;;;5072603;28;20585;-82
2021/12/01 05:55:11;;;;;;;0.80;0.33;;;6.10;99.90;;;;;;5072397;28;20249;-82
2021/12/01 05:57:37;;;;;;;1.37;0.50;;;6.10;99.90;;;;;;5072403;28;20165;-83
2021/12/01 06:00:09;;;;;;;0.93;0.43;;;6.20;99.90;;;;;;5072377;28;20507;-83
2021/12/01 06:02:35;;;;;;;1.07;0.40;;;6.30;99.90;;;;;;5071987;28;20511;-82
2021/12/01 06:05:01;;;;;;;1.33;0.50;;;6.40;99.90;;;;;;5071042;28;20505;-83
2021/12/01 06:07:26;;;;;;;1.07;0.60;;;6.40;99.90;;;;;;5070892;28;20423;-82
2021/12/01 06:09:52;;;;;;;1.40;0.63;;;6.40;99.90;;;;;;5070985;28;20173;-82
2021/12/01 06:12:18;;;;;;;1.20;0.60;;;6.50;99.90;;;;;;5075379;28;20242;-82
2021/12/01 06:14:44;;;;;;;3.80;1.37;;;6.60;99.90;;;;;;5075902;28;20168;-82
2021/12/01 06:17:11;;;;;;;1.43;0.70;;;6.70;99.90;;;;;;5075579;28;20416;-82
2021/12/01 06:19:38;;;;;;;2.30;1.47;;;6.70;99.90;;;;;;5075396;28;20417;-82
2021/12/01 06:22:04;;;;;;;1.83;0.73;;;6.80;99.90;;;;;;5075728;28;20811;-83
2021/12/01 06:24:30;;;;;;;3.50;1.80;;;6.80;99.90;;;;;;5075620;28;20933;-82
2021/12/01 06:26:55;;;;;;;4.07;2.10;;;6.90;99.90;;;;;;5075505;28;20465;-83
2021/12/01 06:29:21;;;;;;;5.50;4.47;;;7.00;99.90;;;;;;5075728;28;20182;-83
2021/12/01 06:31:46;;;;;;;4.40;1.87;;;7.20;99.90;;;;;;5075384;28;20170;-82
2021/12/01 06:34:12;;;;;;;3.80;3.17;;;7.40;99.90;;;;;;5073923;28;20174;-82
2021/12/01 06:36:38;;;;;;;3.70;2.17;;;7.60;99.90;;;;;;5075576;28;20185;-83
2021/12/01 06:39:05;;;;;;;4.83;2.63;;;7.70;99.90;;;;;;5098884;28;20708;-82
2021/12/01 06:41:30;;;;;;;4.10;3.60;;;7.80;99.90;;;;;;5095598;28;20221;-84
2021/12/01 06:43:56;;;;;;;5.47;3.33;;;8.00;99.90;;;;;;5095554;28;20407;-87
2021/12/01 06:46:23;;;;;;;5.67;3.50;;;8.10;99.90;;;;;;5095566;28;20210;-82
2021/12/01 06:48:48;;;;;;;5.47;3.30;;;8.10;99.90;;;;;;5095153;28;20630;-82
2021/12/01 06:51:14;;;;;;;4.30;3.23;;;8.10;99.90;;;;;;5095470;28;20429;-90
2021/12/01 06:53:40;;;;;;;3.90;3.10;;;8.10;99.90;;;;;;5095428;28;20362;-81
2021/12/01 06:56:09;;;;;;;9.10;4.30;;;8.20;99.90;;;;;;5095412;28;20447;-82
2021/12/01 06:58:36;;;;;;;4.47;2.80;;;8.20;99.90;;;;;;5095263;28;20225;-82
2021/12/01 07:01:04;;;;;;;3.17;2.80;;;8.30;99.90;;;;;;5077058;28;20842;-85
2021/12/01 07:03:31;;;;;;;4.30;3.13;;;8.20;99.90;;;;;;5094804;28;20468;-82
2021/12/01 07:05:56;;;;;;;3.70;2.13;;;8.40;99.90;;;;;;5095158;28;20843;-82
2021/12/01 07:08:23;;;;;;;3.77;2.70;;;8.30;99.90;;;;;;5095075;28;20430;-83
2021/12/01 07:10:49;;;;;;;3.87;2.53;;;8.30;99.90;;;;;;5094913;28;20166;-83
2021/12/01 07:13:15;;;;;;;3.60;2.20;;;8.30;99.90;;;;;;5095142;28;20968;-83
2021/12/01 07:15:41;;;;;;;2.93;2.00;;;8.40;99.90;;;;;;5095019;28;20463;-83
2021/12/01 07:18:07;;;;;;;4.07;2.70;;;8.40;99.90;;;;;;5094515;28;20534;-83
2021/12/01 07:20:33;;;;;;;2.30;1.57;;;8.40;99.90;;;;;;5094799;28;20173;-85
2021/12/01 07:22:59;;;;;;;3.10;2.63;;;8.40;99.90;;;;;;5094112;28;20444;-84
2021/12/01 07:25:25;;;;;;;2.70;1.73;;;8.40;99.90;;;;;;5094901;28;20413;-84
2021/12/01 07:27:51;;;;;;;2.27;1.40;;;8.40;99.90;;;;;;5095012;28;20174;-88
2021/12/01 07:30:16;;;;;;;2.40;1.50;;;8.40;99.90;;;;;;5095371;28;20422;-87
2021/12/01 07:32:42;;;;;;;2.80;2.23;;;8.40;99.90;;;;;;5094665;28;20172;-85
2021/12/01 07:35:08;;;;;;;2.63;2.10;;;8.40;99.90;;;;;;5093906;28;20274;-83
2021/12/01 07:37:33;;;;;;;3.10;2.10;;;8.40;99.90;;;;;;5094430;28;20641;-86
2021/12/01 07:39:59;;;;;;;3.53;2.03;;;8.40;99.90;;;;;;5094782;28;20519;-84
2021/12/01 07:42:25;;;;;;;2.80;1.90;;;8.40;99.90;;;;;;5093323;28;20217;-83
2021/12/01 07:44:50;;;;;;;1.97;1.37;;;8.40;99.90;;;;;;5093001;28;20255;-85
2021/12/01 07:47:16;;;;;;;2.73;1.70;;;8.40;99.90;;;;;;5093803;28;20202;-86
2021/12/01 07:49:41;;;;;;;4.00;1.80;;;8.40;99.90;;;;;;5094662;28;20173;-83
2021/12/01 07:52:08;;;;;;;2.63;1.67;;;8.40;99.90;;;;;;5094586;28;20257;-83
2021/12/01 07:54:35;;;;;;;3.50;2.00;;;8.40;99.90;;;;;;5094464;28;20649;-83
2021/12/01 07:57:01;;;;;;;4.30;1.90;;;8.40;99.90;;;;;;5094435;28;20421;-84
2021/12/01 07:59:27;;;;;;;3.23;1.30;;;8.30;99.90;;;;;;5094364;28;20924;-84
2021/12/01 08:01:53;;;;;;;3.40;1.93;;;8.30;99.90;;;;;;5094972;28;20470;-90
2021/12/01 08:04:19;;;;;;;2.70;1.27;;;8.20;99.90;;;;;;5092740;28;20799;-84
2021/12/01 08:06:44;;;;;;;3.10;2.10;;;8.20;99.90;;;;;;5094218;28;20243;-86
2021/12/01 08:09:10;;;;;;;2.50;1.93;;;8.20;99.90;;;;;;5094245;28;20188;-88
2021/12/01 08:11:38;;;;;;;2.70;1.40;;;8.20;99.90;;;;;;5093049;28;20184;-83
2021/12/01 08:14:05;;;;;;;2.80;1.20;;;8.30;99.90;;;;;;5093992;28;20163;-83
2021/12/01 08:16:32;;;;;;;3.70;2.30;;;8.30;99.90;;;;;;5094084;28;20419;-83
2021/12/01 08:18:57;;;;;;;2.60;1.50;;;8.30;99.90;;;;;;5093757;28;20771;-82
2021/12/01 08:21:24;;;;;;;3.17;1.97;;;8.30;99.90;;;;;;5093381;28;20513;-82
2021/12/01 08:23:54;;;;;;;2.73;1.50;;;8.20;99.90;;;;;;5094047;28;20247;-85
2021/12/01 08:26:20;;;;;;;3.27;1.77;;;8.20;99.90;;;;;;5093899;28;20416;-83
2021/12/01 08:28:48;;;;;;;2.03;1.60;;;8.20;99.90;;;;;;5092554;28;20943;-83
2021/12/01 08:31:15;;;;;;;4.67;2.13;;;8.20;99.90;;;;;;5093606;28;20422;-82
2021/12/01 08:33:42;;;;;;;3.57;2.33;;;8.20;99.90;;;;;;5092836;28;20411;-83
2021/12/01 08:36:09;;;;;;;3.07;2.23;;;8.20;99.90;;;;;;5093122;28;20490;-82
2021/12/01 08:38:36;;;;;;;3.07;2.20;;;8.20;99.90;;;;;;5093353;28;20455;-82
2021/12/01 08:41:04;;;;;;;5.00;2.90;;;8.30;99.90;;;;;;5093433;28;21083;-82
2021/12/01 08:43:30;;;;;;;4.50;2.67;;;8.30;99.90;;;;;;5093485;28;20416;-83
2021/12/01 08:45:56;;;;;;;4.27;2.10;;;8.30;99.90;;;;;;5093388;28;20515;-82
2021/12/01 08:48:22;;;;;;;2.67;2.27;;;8.20;99.90;;;;;;5093629;28;20505;-86
2021/12/01 08:50:48;;;;;;;3.20;2.73;;;8.20;99.90;;;;;;5087240;28;20461;-85
2021/12/01 08:53:14;;;;;;;3.77;2.40;;;8.30;99.90;;;;;;5073770;28;21138;-85
2021/12/01 08:55:41;;;;;;;3.90;2.63;;;8.30;99.90;;;;;;5080813;28;20181;-90
2021/12/01 08:58:11;;;;;;;4.00;1.93;;;8.20;99.90;;;;;;5084596;28;20186;-85
2021/12/01 09:00:42;;;;;;;3.70;2.67;;;8.30;99.90;;;;;;5090620;28;20466;-86
2021/12/01 09:03:08;;;;;;;3.27;2.13;;;8.20;99.90;;;;;;5108657;28;20484;-88
2021/12/01 09:05:33;;;;;;;2.90;2.00;;;8.20;99.90;;;;;;5092742;28;20421;-86
2021/12/01 09:07:59;;;;;;;3.10;2.43;;;8.20;99.90;;;;;;5092296;28;20179;-88
2021/12/01 09:10:25;;;;;;;2.70;1.80;;;8.30;99.90;;;;;;5092067;28;20190;-88
2021/12/01 09:12:50;;;;;;;2.50;1.80;;;8.30;99.90;;;;;;5092267;28;20176;-88
2021/12/01 09:15:16;;;;;;;2.13;1.40;;;8.30;99.90;;;;;;5090594;28;20540;-86
2021/12/01 09:17:42;;;;;;;3.70;2.50;;;8.20;99.90;;;;;;5091641;28;20310;-87
2021/12/01 09:20:08;;;;;;;2.20;1.50;;;8.20;99.90;;;;;;5091942;28;20171;-86
2021/12/01 09:22:34;;;;;;;2.40;1.30;;;8.20;99.90;;;;;;5091910;28;21128;-87
2021/12/01 09:25:00;;;;;;;2.40;1.10;;;8.20;99.90;;;;;;5090755;28;20451;-86
2021/12/01 09:27:25;;;;;;;2.17;1.97;;;8.20;99.90;;;;;;5090596;28;20264;-88
2021/12/01 09:29:53;;;;;;;2.60;1.40;;;8.20;99.90;;;;;;5090759;28;20203;-86
2021/12/01 09:32:19;;;;;;;2.27;1.30;;;8.10;99.90;;;;;;5090518;28;20848;-88
2021/12/01 09:34:45;;;;;;;2.60;1.10;;;8.10;99.90;;;;;;5092022;28;20428;-89
2021/12/01 09:37:10;;;;;;;2.00;1.20;;;8.20;99.90;;;;;;5090993;28;20839;-87
2021/12/01 09:39:36;;;;;;;2.47;2.03;;;8.10;99.90;;;;;;5090924;28;20223;-88
2021/12/01 09:42:03;;;;;;;1.73;1.30;;;8.10;99.90;;;;;;5090587;28;20699;-87
2021/12/01 09:44:31;;;;;;;1.73;1.27;;;8.10;99.90;;;;;;5091849;28;20426;-88
2021/12/01 09:46:57;;;;;;;1.87;1.67;;;8.10;99.90;;;;;;5093587;28;20430;-87
2021/12/01 09:49:23;;;;;;;1.70;0.70;;;8.10;99.90;;;;;;5095686;28;20455;-86
2021/12/01 09:51:49;;;;;;;2.60;2.13;;;8.10;99.90;;;;;;5095711;28;20415;-86
2021/12/01 09:54:15;;;;;;;1.07;0.63;;;8.10;99.90;;;;;;5095654;28;20409;-85
2021/12/01 09:56:41;;;;;;;1.87;1.10;;;8.20;99.90;;;;;;5094475;28;20232;-84
2021/12/01 09:59:06;;;;;;;2.17;0.97;;;8.20;99.90;;;;;;5094286;28;20170;-87
2021/12/01 10:01:32;;;;;;;2.93;0.70;;;8.20;99.90;;;;;;5095405;28;20212;-85
2021/12/01 10:03:58;;;;;;;1.03;0.67;;;8.30;99.90;;;;;;5095228;28;20172;-86
2021/12/01 10:06:25;;;;;;;1.10;0.50;;;8.20;99.90;;;;;;5095653;28;20929;-88
2021/12/01 10:08:54;;;;;;;1.43;0.60;;;8.20;99.90;;;;;;5095572;28;20954;-85
2021/12/01 10:11:31;;;;;;;1.23;1.10;;;8.20;99.90;;;;;;5095584;28;20415;-90
2021/12/01 10:14:03;;;;;;;1.90;0.60;;;8.20;99.90;;;;;;5098745;28;20399;-91
2021/12/01 10:16:32;;;;;;;2.03;0.93;;;8.20;99.90;;;;;;5098015;28;20411;-94
2021/12/01 10:19:00;;;;;;;1.03;0.93;;;8.20;99.90;;;;;;5097168;28;20496;-93
2021/12/01 10:21:29;;;;;;;1.77;1.00;;;8.20;99.90;;;;;;5098006;28;20467;-91
2021/12/01 10:23:57;;;;;;;1.73;0.90;;;8.20;99.90;;;;;;5097815;28;20766;-91
2021/12/01 10:26:49;;;;;;;1.20;0.83;;;8.20;99.90;;;;;;5096437;28;20427;-93
2021/12/01 10:29:21;;;;;;;1.27;0.87;;;8.20;99.90;;;;;;5087598;28;20460;-93
2021/12/01 10:31:51;;;;;;;0.93;0.60;;;8.30;99.90;;;;;;5097311;28;20552;-91
2021/12/01 10:34:31;;;;;;;0.90;0.80;;;8.20;99.90;;;;;;5097020;28;20412;-93
2021/12/01 10:37:23;;;;;;;3.90;0.67;;;8.30;99.90;;;;;;5096966;28;20409;-92
2021/12/01 10:40:03;;;;;;;0.80;0.40;;;8.30;99.90;;;;;;5096656;28;20485;-85
2021/12/01 10:42:29;;;;;;;1.60;0.70;;;8.30;99.90;;;;;;5096505;28;20925;-82
2021/12/01 10:45:04;;;;;;;1.23;0.80;;;8.30;99.90;;;;;;5096514;28;20515;-86
2021/12/01 10:47:41;;;;;;;1.20;1.07;;;8.30;99.90;;;;;;5094896;28;20173;-90
2021/12/01 10:50:20;;;;;;;1.80;0.77;;;8.30;99.90;;;;;;5096629;28;20762;-92
2021/12/01 10:52:54;;;;;;;1.13;1.00;;;8.30;99.90;;;;;;5096602;28;20433;-90
2021/12/01 10:55:22;;;;;;;2.60;1.33;;;8.30;99.90;;;;;;5096342;28;20415;-86
2021/12/01 10:57:58;;;;;;;1.40;1.03;;;8.30;99.90;;;;;;5093651;28;20417;-90
2021/12/01 11:00:31;;;;;;;1.43;0.57;;;8.40;99.90;;;;;;5095160;28;20427;-82
2021/12/01 11:03:14;;;;;;;1.43;1.13;;;8.40;99.90;;;;;;5095737;28;20561;-90
2021/12/01 11:05:51;;;;;;;1.87;0.70;;;8.50;99.90;;;;;;5096013;28;20397;-83
2021/12/01 11:08:17;;;;;;;1.80;1.00;;;8.50;99.90;;;;;;5095765;28;20427;-83
2021/12/01 11:10:56;;;;;;;1.40;0.63;;;8.50;99.90;;;;;;5095932;28;20412;-86
2021/12/01 11:13:22;;;;;;;1.43;0.60;;;8.50;99.90;;;;;;5095749;28;20424;-91
2021/12/01 11:15:56;;;;;;;1.67;1.03;;;8.50;99.90;;;;;;5095761;28;20444;-85
2021/12/01 11:18:29;;;;;;;0.70;0.50;;;8.60;99.90;;;;;;5095206;28;20421;-91
2021/12/01 11:20:58;;;;;;;0.67;0.67;;;8.60;99.90;;;;;;5094297;28;20514;-89
2021/12/01 11:23:43;;;;;;;0.83;0.50;;;8.60;99.90;;;;;;5096502;28;20451;-88
2021/12/01 11:26:15;;;;;;;0.60;0.57;;;8.70;99.90;;;;;;5095489;28;20464;-86
2021/12/01 11:28:44;;;;;;;1.20;0.60;;;8.70;99.90;;;;;;5095476;28;20415;-92
2021/12/01 11:31:13;;;;;;;0.77;0.30;;;8.60;99.90;;;;;;5094782;28;20890;-91
2021/12/01 11:33:44;;;;;;;0.70;0.37;;;8.60;99.90;;;;;;5095198;28;20412;-82
2021/12/01 11:36:12;;;;;;;1.30;0.67;;;8.60;99.90;;;;;;5095100;28;20412;-86
2021/12/01 11:38:37;;;;;;;1.13;0.50;;;8.70;99.90;;;;;;5095351;28;20460;-82
2021/12/01 11:41:06;;;;;;;0.93;0.60;;;8.60;99.90;;;;;;5095134;28;20518;-82
2021/12/01 11:43:33;;;;;;;1.00;0.30;;;8.60;99.90;;;;;;5095078;28;20285;-82
2021/12/01 11:46:00;;;;;;;5.20;0.87;;;8.60;99.90;;;;;;5094999;28;20421;-86
2021/12/01 11:48:32;;;;;;;0.80;0.33;;;8.60;99.90;;;;;;5093328;28;20439;-84
2021/12/01 11:51:11;;;;;;;1.83;0.70;;;8.60;99.90;;;;;;5094946;28;20494;-89
2021/12/01 11:53:39;;;;;;;0.97;0.53;;;8.50;99.90;;;;;;5095183;28;20999;-93
2021/12/01 11:56:17;;;;;;;1.07;0.83;;;8.60;99.90;;;;;;5094932;28;20855;-85
2021/12/01 11:58:59;;;;;;;0.90;0.57;;;8.50;99.90;;;;;;5095420;28;20416;-90
2021/12/01 12:01:24;;;;;;;0.70;0.30;;;8.60;99.90;;;;;;5095057;28;20471;-90
2021/12/01 12:03:53;;;;;;;1.33;0.50;;;8.60;99.90;;;;;;5093129;28;20927;-88
2021/12/01 12:06:25;;;;;;;0.90;0.83;;;8.70;99.90;;;;;;5094665;28;20167;-90
2021/12/01 12:08:53;;;;;;;0.60;0.40;;;8.80;99.90;;;;;;5094493;28;20408;-88
2021/12/01 12:11:37;;;;;;;4.37;2.50;;;8.90;99.90;;;;;;5094994;28;20498;-82
2021/12/01 12:14:05;;;;;;;0.90;0.40;;;9.00;99.90;;;;;;5093240;28;20440;-83
2021/12/01 12:16:31;;;;;;;0.70;0.30;;;9.00;99.90;;;;;;5094562;28;20454;-93
2021/12/01 12:18:59;;;;;;;0.70;0.30;;;9.00;99.90;;;;;;5093612;28;20477;-90
2021/12/01 12:21:43;;;;;;;0.60;0.27;;;9.10;99.90;;;;;;5094739;28;20464;-91
2021/12/01 12:24:19;;;;;;;0.50;0.30;;;9.00;99.90;;;;;;5095037;28;20491;-90
2021/12/01 12:26:51;;;;;;;1.20;0.30;;;9.00;99.90;;;;;;5094652;28;20418;-84
2021/12/01 12:29:20;;;;;;;0.50;0.40;;;8.90;99.90;;;;;;5094622;28;20409;-83
2021/12/01 12:31:47;;;;;;;0.70;0.50;;;8.90;99.90;;;;;;5094241;28;20433;-87
2021/12/01 12:34:14;;;;;;;0.50;0.30;;;8.90;99.90;;;;;;5094458;28;20413;-91
2021/12/01 12:36:44;;;;;;;0.60;0.20;;;9.10;99.90;;;;;;5094450;28;20879;-94
2021/12/01 12:39:12;;;;;;;0.70;0.23;;;9.10;99.90;;;;;;5092976;28;20460;-84
2021/12/01 12:41:57;;;;;;;0.60;0.30;;;9.10;99.90;;;;;;5094193;28;20468;-81
2021/12/01 12:44:35;;;;;;;1.13;0.30;;;9.10;99.90;;;;;;5093966;28;20406;-89
2021/12/01 12:47:12;;;;;;;1.20;0.30;;;9.20;99.90;;;;;;5094352;28;20421;-90
2021/12/01 12:49:40;;;;;;;1.00;0.20;;;9.30;99.90;;;;;;5093213;28;20434;-88
2021/12/01 12:52:24;;;;;;;1.07;0.30;;;9.30;99.90;;;;;;5094611;28;20495;-89
2021/12/01 12:55:01;;;;;;;0.53;0.30;;;9.20;99.90;;;;;;5094471;28;20417;-88
2021/12/01 12:57:49;;;;;;;1.10;0.50;;;9.20;99.90;;;;;;5094120;28;20442;-85
2021/12/01 13:00:23;;;;;;;0.57;0.30;;;9.30;99.90;;;;;;5092808;28;20426;-85
2021/12/01 13:02:50;;;;;;;0.70;0.20;;;9.30;99.90;;;;;;5093702;28;20466;-88
2021/12/01 13:05:29;;;;;;;0.50;0.40;;;9.30;99.90;;;;;;5094148;28;20416;-87
2021/12/01 13:07:56;;;;;;;1.13;0.43;;;9.30;99.90;;;;;;5093956;28;20429;-87